createdAt,value
2017-01-30T00:04:48.951Z,3.1
2017-01-30T00:15:02.517Z,3.1
2017-01-30T00:25:17.289Z,3.4
2017-01-30T00:35:32.273Z,3.5
2017-01-30T00:45:46.362Z,3.7
2017-01-30T00:55:59.859Z,3.6
2017-01-30T01:06:13.845Z,3.6
2017-01-30T01:16:27.458Z,3.5
2017-01-30T01:26:40.942Z,3.5
2017-01-30T01:36:54.837Z,3.5
2017-01-30T01:47:09.501Z,3.6
2017-01-30T01:57:23.068Z,3.6
2017-01-30T02:07:36.875Z,3.5
2017-01-30T02:17:50.031Z,3.5
2017-01-30T02:28:04.613Z,3.6
2017-01-30T02:38:18.848Z,3.5
2017-01-30T02:48:33.516Z,3.7
2017-01-30T02:58:46.437Z,3.7
2017-01-30T03:09:00.062Z,4.2
2017-01-30T03:19:13.651Z,4.1
2017-01-30T03:29:26.934Z,4.1
2017-01-30T03:39:41.748Z,4.3
2017-01-30T03:49:55.028Z,4.4
2017-01-30T04:00:09.194Z,4.5
2017-01-30T04:10:22.881Z,4.7
2017-01-30T04:20:36.639Z,4.7
2017-01-30T04:30:49.704Z,4.7
2017-01-30T04:41:04.676Z,4.9
2017-01-30T04:51:18.996Z,4.6
2017-01-30T05:01:34.167Z,4.5
2017-01-30T05:11:48.245Z,4.6
2017-01-30T05:22:03.311Z,4.7
2017-01-30T05:32:16.424Z,4.9
2017-01-30T05:42:30.527Z,4.8
2017-01-30T05:52:44.333Z,4.9
2017-01-30T06:02:58.850Z,5
2017-01-30T06:13:12.608Z,4.9
2017-01-30T06:23:26.183Z,4.9
2017-01-30T06:33:40.521Z,4.7
2017-01-30T06:43:55.292Z,4.8
2017-01-30T06:54:10.424Z,4.6
2017-01-30T07:04:23.875Z,4.7
2017-01-30T07:14:37.643Z,4.8
2017-01-30T07:24:52.600Z,4.8
2017-01-30T07:35:07.131Z,4.9
2017-01-30T07:45:21.598Z,4.9
2017-01-30T07:55:35.021Z,5
2017-01-30T08:05:49.728Z,5.1
2017-01-30T08:16:04.023Z,5.1
2017-01-30T08:26:17.136Z,5.2
2017-01-30T08:36:30.956Z,5.1
2017-01-30T08:46:45.961Z,5.1
2017-01-30T08:57:01.030Z,5.2
2017-01-30T09:07:15.778Z,5.3
2017-01-30T09:17:28.481Z,5.4
2017-01-30T09:27:43.521Z,5.6
2017-01-30T09:48:10.805Z,5.6
2017-01-30T09:58:24.482Z,5.7
2017-01-30T10:08:38.142Z,5.7
2017-01-30T10:18:52.658Z,5.8
2017-01-30T10:29:06.849Z,5.9
2017-01-30T10:39:21.848Z,6
2017-01-30T10:49:35.384Z,6.1
2017-01-30T10:59:48.662Z,6.2
2017-01-30T11:10:02.073Z,6.3
2017-01-30T11:20:15.986Z,6.5
2017-01-30T11:30:29.280Z,6.4
2017-01-30T11:40:43.755Z,6.6
2017-01-30T11:50:56.928Z,6.6
2017-01-30T12:01:10.503Z,6.7
2017-01-30T12:11:24.063Z,6.7
2017-01-30T12:21:37.517Z,6.8
2017-01-30T12:31:52.286Z,6.6
2017-01-30T12:42:06.925Z,6.7
2017-01-30T12:52:21.302Z,6.7
2017-01-30T13:02:34.932Z,6.8
2017-01-30T13:12:48.284Z,6.9
2017-01-30T13:23:02.022Z,6.9
2017-01-30T13:33:16.407Z,6.9
2017-01-30T13:43:29.878Z,6.9
2017-01-30T13:53:43.474Z,6.9
2017-01-30T14:03:58.334Z,6.9
2017-01-30T14:14:12.682Z,6.8
2017-01-30T14:24:27.653Z,7
2017-01-30T14:34:42.165Z,7
2017-01-30T14:44:55.305Z,6.9
2017-01-30T14:55:09.067Z,6.9
2017-01-30T15:05:21.881Z,6.9
2017-01-30T15:15:36.864Z,6.7
2017-01-30T15:25:50.359Z,6.7
2017-01-30T15:36:03.653Z,6.5
2017-01-30T15:46:17.174Z,6.6
2017-01-30T15:56:32.575Z,6.5
2017-01-30T16:06:45.776Z,5.9
2017-01-30T16:17:00.349Z,5.5
2017-01-30T16:27:14.958Z,5.4
2017-01-30T16:37:28.981Z,5.2
2017-01-30T16:47:42.510Z,5
2017-01-30T16:57:57.123Z,4.8
2017-01-30T17:08:10.825Z,4.6
2017-01-30T17:18:25.433Z,4.5
2017-01-30T17:28:40.300Z,4.5
2017-01-30T17:38:55.218Z,4.2
2017-01-30T17:49:08.831Z,4.1
2017-01-30T17:59:23.917Z,4
2017-01-30T18:09:38.353Z,3.9
2017-01-30T18:19:52.132Z,3.7
2017-01-30T18:30:06.402Z,3.5
2017-01-30T18:40:20.410Z,3.4
2017-01-30T18:50:33.923Z,3.3
2017-01-30T19:00:48.507Z,3.1
2017-01-30T19:11:01.631Z,3.1
2017-01-30T19:21:15.625Z,3
2017-01-30T19:31:28.815Z,3
2017-01-30T19:41:43.175Z,2.9
2017-01-30T19:51:57.114Z,2.9
2017-01-30T20:02:12.017Z,2.9
2017-01-30T20:12:25.385Z,2.9
2017-01-30T20:22:38.539Z,2.7
2017-01-30T20:32:52.625Z,2.6
2017-01-30T20:43:06.719Z,2.5
2017-01-30T20:53:21.142Z,2.4
2017-01-30T21:03:35.730Z,2.4
2017-01-30T21:13:49.113Z,2.3
2017-01-30T21:24:03.779Z,2.2
2017-01-30T21:34:17.809Z,2.2
2017-01-30T21:44:32.233Z,2.1
2017-01-30T21:54:46.197Z,2.3
2017-01-30T22:05:01.195Z,2.1
2017-01-30T22:15:14.700Z,2.1
2017-01-30T22:25:29.299Z,2.1
2017-01-30T22:35:44.022Z,2
2017-01-30T22:45:57.539Z,2
2017-01-30T22:56:10.881Z,2.2
2017-01-30T23:06:24.238Z,2
2017-01-30T23:16:38.166Z,2
2017-01-30T23:26:51.370Z,2
2017-01-30T23:37:05.340Z,2.1
2017-01-30T23:47:18.476Z,2
2017-01-30T23:57:32.888Z,2.1
